createdAt,value
2022-10-28T00:01:40.044Z,87.60
2022-10-28T00:04:42.118Z,87.80
2022-10-28T00:07:44.000Z,87.30
2022-10-28T00:10:45.849Z,87.80
2022-10-28T00:13:48.568Z,88.00
2022-10-28T00:16:50.531Z,87.80
2022-10-28T00:19:52.418Z,87.30
2022-10-28T00:22:55.766Z,87.30
2022-10-28T00:26:08.223Z,87.50
2022-10-28T00:29:13.093Z,87.80
2022-10-28T00:32:15.065Z,87.80
2022-10-28T00:35:17.045Z,87.80
2022-10-28T00:38:18.950Z,87.70
2022-10-28T00:41:30.904Z,87.90
2022-10-28T00:44:56.296Z,87.60
2022-10-28T00:48:04.748Z,88.00
2022-10-28T00:51:06.798Z,87.90
2022-10-28T00:54:09.109Z,88.40
2022-10-28T00:57:13.517Z,88.60
2022-10-28T01:00:15.994Z,88.30
2022-10-28T01:03:18.215Z,88.20
2022-10-28T01:06:20.611Z,88.00
2022-10-28T01:09:22.489Z,88.00
2022-10-28T01:12:55.304Z,87.80
2022-10-28T01:16:34.817Z,88.30
2022-10-28T01:20:04.642Z,88.30
2022-10-28T01:23:21.436Z,88.90
2022-10-28T01:26:51.468Z,88.40
2022-10-28T01:29:59.157Z,88.80
2022-10-28T01:33:07.112Z,88.90
2022-10-28T01:36:15.012Z,88.50
2022-10-28T01:39:19.927Z,88.20
2022-10-28T01:42:35.386Z,88.10
2022-10-28T01:46:01.349Z,88.00
2022-10-28T01:49:13.488Z,87.70
2022-10-28T01:52:19.993Z,88.10
2022-10-28T01:55:29.934Z,87.90
2022-10-28T01:58:33.546Z,87.60
2022-10-28T02:01:36.822Z,87.90
2022-10-28T02:04:38.892Z,87.90
2022-10-28T02:07:40.798Z,88.00
2022-10-28T02:11:00.907Z,88.40
2022-10-28T02:14:23.908Z,88.10
2022-10-28T02:17:56.935Z,88.00
2022-10-28T02:21:13.269Z,87.70
2022-10-28T02:24:40.480Z,88.50
2022-10-28T02:28:04.640Z,87.90
2022-10-28T02:31:18.507Z,87.90
2022-10-28T02:34:25.684Z,87.70
2022-10-28T02:37:32.706Z,87.60
2022-10-28T02:40:38.020Z,87.80
2022-10-28T02:43:43.885Z,87.50
2022-10-28T02:46:49.653Z,88.00
2022-10-28T02:49:57.140Z,87.90
2022-10-28T02:53:01.128Z,88.20
2022-10-28T02:56:06.476Z,88.50
2022-10-28T02:59:12.876Z,88.50
2022-10-28T03:02:14.789Z,88.00
2022-10-28T03:05:16.864Z,87.70
2022-10-28T03:08:18.755Z,87.80
2022-10-28T03:11:20.646Z,87.80
2022-10-28T03:14:22.541Z,88.00
2022-10-28T03:17:24.528Z,88.00
2022-10-28T03:20:26.442Z,87.90
2022-10-28T03:23:30.559Z,87.70
2022-10-28T03:26:32.508Z,87.70
2022-10-28T03:29:35.807Z,87.20
2022-10-28T03:32:37.870Z,87.40
2022-10-28T03:35:39.754Z,87.10
2022-10-28T03:38:41.635Z,86.90
2022-10-28T03:41:43.629Z,86.90
2022-10-28T03:44:45.484Z,86.90
2022-10-28T03:47:47.434Z,86.70
2022-10-28T03:50:53.366Z,86.90
2022-10-28T03:53:55.245Z,86.30
2022-10-28T03:56:57.150Z,86.40
2022-10-28T03:59:59.207Z,86.00
2022-10-28T04:03:01.094Z,86.00
2022-10-28T04:06:05.145Z,85.40
2022-10-28T04:09:07.186Z,86.30
2022-10-28T04:12:10.936Z,85.60
2022-10-28T04:15:12.771Z,85.80
2022-10-28T04:18:14.663Z,86.40
2022-10-28T04:21:16.534Z,86.80
2022-10-28T04:24:18.461Z,85.70
2022-10-28T04:27:20.787Z,85.80
2022-10-28T04:30:24.372Z,86.00
2022-10-28T04:33:26.202Z,86.40
2022-10-28T04:36:28.066Z,86.40
2022-10-28T04:39:29.903Z,86.70
2022-10-28T04:42:32.143Z,87.00
2022-10-28T04:45:34.315Z,87.50
2022-10-28T04:48:36.441Z,87.70
2022-10-28T04:51:38.357Z,87.60
2022-10-28T04:54:40.303Z,87.70
2022-10-28T04:57:42.250Z,87.80
2022-10-28T05:00:45.399Z,87.90
2022-10-28T05:03:47.373Z,88.00
2022-10-28T05:06:49.525Z,88.10
2022-10-28T05:09:51.525Z,87.90
2022-10-28T05:12:53.448Z,87.90
2022-10-28T05:15:55.363Z,87.80
2022-10-28T05:18:58.090Z,87.60
2022-10-28T05:21:59.966Z,87.90
2022-10-28T05:25:01.942Z,87.70
2022-10-28T05:28:05.049Z,87.80
2022-10-28T05:31:06.891Z,87.50
2022-10-28T05:34:08.770Z,87.90
2022-10-28T05:37:12.070Z,88.50
2022-10-28T05:40:21.073Z,88.40
2022-10-28T05:43:23.040Z,88.20
2022-10-28T05:46:25.001Z,88.10
2022-10-28T05:49:26.929Z,88.80
2022-10-28T05:52:29.051Z,88.80
2022-10-28T05:55:31.047Z,88.40
2022-10-28T05:58:33.238Z,88.40
2022-10-28T06:01:37.468Z,88.50
2022-10-28T06:04:42.555Z,88.10
2022-10-28T06:07:44.630Z,88.00
2022-10-28T06:10:55.515Z,88.20
2022-10-28T06:13:57.518Z,88.10
2022-10-28T06:16:59.549Z,87.90
2022-10-28T06:20:02.875Z,87.80
2022-10-28T06:23:04.889Z,87.90
2022-10-28T06:26:10.808Z,87.90
2022-10-28T06:29:13.064Z,88.00
2022-10-28T06:32:17.142Z,87.80
2022-10-28T06:35:19.276Z,88.30
2022-10-28T06:38:21.359Z,88.40
2022-10-28T06:41:23.305Z,87.60
2022-10-28T06:44:25.236Z,87.70
2022-10-28T06:47:28.811Z,87.80
2022-10-28T06:50:31.041Z,87.50
2022-10-28T06:53:33.093Z,88.20
2022-10-28T06:56:35.053Z,87.70
2022-10-28T06:59:37.299Z,88.10
2022-10-28T07:02:42.819Z,88.00
2022-10-28T07:05:49.079Z,87.80
2022-10-28T07:08:52.145Z,87.60
2022-10-28T07:11:55.336Z,87.60
2022-10-28T07:14:57.776Z,87.40
2022-10-28T07:18:00.447Z,87.70
2022-10-28T07:21:02.873Z,87.70
2022-10-28T07:24:04.760Z,87.30
2022-10-28T07:27:07.779Z,87.20
2022-10-28T07:30:13.006Z,87.10
2022-10-28T07:33:17.329Z,87.40
2022-10-28T07:36:19.604Z,87.70
2022-10-28T07:39:22.192Z,87.30
2022-10-28T07:42:24.049Z,87.00
2022-10-28T07:45:26.142Z,87.40
2022-10-28T07:48:28.126Z,86.90
2022-10-28T07:51:30.531Z,87.10
2022-10-28T07:54:32.369Z,87.60
2022-10-28T07:57:37.628Z,87.00
2022-10-28T08:00:42.064Z,86.50
2022-10-28T08:03:44.577Z,86.90
2022-10-28T08:06:46.461Z,87.00
2022-10-28T08:09:48.529Z,86.80
2022-10-28T08:12:50.574Z,86.80
2022-10-28T08:15:54.309Z,87.20
2022-10-28T08:18:56.515Z,87.10
2022-10-28T08:21:58.860Z,86.40
2022-10-28T08:25:00.723Z,86.20
2022-10-28T08:28:05.002Z,86.40
2022-10-28T08:31:09.168Z,86.50
2022-10-28T08:34:11.700Z,86.60
2022-10-28T08:37:13.681Z,86.40
2022-10-28T08:40:15.780Z,86.60
2022-10-28T08:43:57.093Z,86.80
2022-10-28T08:47:03.236Z,86.30
2022-10-28T08:50:17.129Z,86.00
2022-10-28T08:53:25.809Z,85.80
2022-10-28T08:56:35.576Z,85.50
2022-10-28T08:59:41.126Z,85.00
2022-10-28T09:02:54.211Z,83.60
2022-10-28T09:06:14.411Z,85.00
2022-10-28T09:09:22.225Z,85.10
2022-10-28T09:12:33.013Z,84.80
2022-10-28T09:15:37.779Z,84.90
2022-10-28T09:19:14.903Z,84.30
2022-10-28T09:22:20.924Z,83.30
2022-10-28T09:25:31.987Z,82.50
2022-10-28T09:28:52.478Z,81.60
2022-10-28T09:32:03.362Z,80.40
2022-10-28T09:35:16.231Z,80.60
2022-10-28T09:38:20.978Z,81.20
2022-10-28T09:41:24.964Z,81.00
2022-10-28T09:44:44.300Z,80.90
2022-10-28T09:47:57.102Z,81.20
2022-10-28T09:50:59.851Z,81.50
2022-10-28T09:54:02.473Z,81.40
2022-10-28T09:57:05.046Z,80.20
2022-10-28T10:00:08.465Z,80.10
2022-10-28T10:03:11.370Z,79.00
2022-10-28T10:06:29.641Z,78.70
2022-10-28T10:09:34.333Z,78.50
2022-10-28T10:12:37.663Z,77.00
2022-10-28T10:15:50.095Z,76.50
2022-10-28T10:18:57.729Z,76.30
2022-10-28T10:21:59.672Z,75.60
2022-10-28T10:25:02.317Z,73.70
2022-10-28T10:28:16.328Z,74.10
2022-10-28T10:31:27.901Z,73.50
2022-10-28T10:34:29.980Z,73.60
2022-10-28T10:37:33.770Z,73.40
2022-10-28T10:40:40.495Z,73.90
2022-10-28T10:43:42.369Z,72.80
2022-10-28T10:46:44.231Z,72.30
2022-10-28T10:49:46.994Z,73.60
2022-10-28T11:03:22.476Z,72.50
2022-10-28T11:06:28.909Z,71.70
2022-10-28T11:09:35.847Z,69.00
2022-10-28T11:12:38.259Z,68.70
2022-10-28T11:15:40.160Z,69.10
2022-10-28T11:18:45.345Z,68.10
2022-10-28T11:22:10.883Z,66.80
2022-10-28T11:25:38.361Z,69.30
2022-10-28T11:28:55.603Z,67.80
2022-10-28T11:32:28.680Z,66.40
2022-10-28T11:35:56.900Z,67.10
2022-10-28T11:38:58.723Z,65.60
2022-10-28T11:42:12.376Z,64.60
2022-10-28T11:49:08.211Z,63.40
2022-10-28T11:52:44.157Z,63.60
2022-10-28T11:56:05.127Z,63.30
2022-10-28T11:59:13.024Z,62.40
2022-10-28T12:02:33.643Z,61.30
2022-10-28T12:05:48.138Z,61.90
2022-10-28T12:09:11.833Z,60.60
2022-10-28T12:12:23.705Z,61.00
2022-10-28T12:15:49.637Z,60.30
2022-10-28T12:18:54.696Z,60.00
2022-10-28T12:22:23.865Z,61.40
2022-10-28T12:25:33.264Z,59.10
2022-10-28T12:28:47.062Z,58.60
2022-10-28T12:31:54.991Z,60.90
2022-10-28T12:35:05.984Z,59.80
2022-10-28T12:38:11.058Z,59.20
2022-10-28T12:41:21.894Z,59.80
2022-10-28T12:44:30.106Z,59.50
2022-10-28T12:47:42.108Z,58.20
2022-10-28T12:50:54.186Z,59.20
2022-10-28T12:53:58.600Z,60.90
2022-10-28T12:57:22.396Z,59.10
2022-10-28T13:00:29.590Z,59.30
2022-10-28T13:03:32.141Z,60.40
2022-10-28T13:06:48.975Z,60.50
2022-10-28T13:09:54.432Z,60.70
2022-10-28T13:13:09.281Z,59.10
2022-10-28T13:16:37.084Z,59.90
2022-10-28T13:19:52.901Z,59.90
2022-10-28T13:23:11.423Z,59.90
2022-10-28T13:26:31.681Z,59.10
2022-10-28T13:29:36.655Z,59.60
2022-10-28T13:32:41.648Z,59.20
2022-10-28T13:35:48.793Z,59.90
2022-10-28T13:38:57.735Z,60.20
2022-10-28T13:42:16.294Z,60.80
2022-10-28T13:45:48.425Z,60.90
2022-10-28T13:48:50.874Z,61.30
2022-10-28T13:52:12.071Z,61.30
2022-10-28T13:55:51.687Z,61.50
2022-10-28T13:59:03.345Z,61.40
2022-10-28T14:02:36.580Z,61.30
2022-10-28T14:05:38.873Z,61.80
2022-10-28T14:08:41.825Z,62.10
2022-10-28T14:11:44.133Z,62.50
2022-10-28T14:15:14.074Z,62.50
2022-10-28T14:18:41.811Z,62.40
2022-10-28T14:22:02.454Z,62.50
2022-10-28T14:25:43.612Z,62.60
2022-10-28T14:28:45.652Z,62.70
2022-10-28T14:31:47.892Z,63.00
2022-10-28T14:34:53.063Z,63.30
2022-10-28T14:38:16.799Z,63.50
2022-10-28T14:41:40.713Z,63.90
2022-10-28T14:45:03.132Z,63.90
2022-10-28T14:48:05.705Z,64.80
2022-10-28T14:51:20.344Z,64.60
2022-10-28T14:54:39.726Z,64.70
2022-10-28T14:57:42.851Z,65.20
2022-10-28T15:01:11.601Z,66.00
2022-10-28T15:04:20.955Z,66.20
2022-10-28T15:07:23.091Z,66.70
2022-10-28T15:10:31.353Z,66.60
2022-10-28T15:13:33.744Z,67.20
2022-10-28T15:16:35.864Z,67.30
2022-10-28T15:19:38.113Z,67.40
2022-10-28T15:22:40.150Z,68.60
2022-10-28T15:25:42.485Z,68.80
2022-10-28T15:28:45.094Z,69.40
2022-10-28T15:32:13.667Z,69.30
2022-10-28T15:35:45.297Z,70.70
2022-10-28T15:38:50.632Z,73.00
2022-10-28T15:41:52.757Z,73.60
2022-10-28T15:44:55.298Z,73.50
2022-10-28T15:47:59.021Z,75.20
2022-10-28T15:51:18.177Z,75.70
2022-10-28T15:54:20.571Z,75.90
2022-10-28T15:57:25.585Z,77.40
2022-10-28T16:00:29.490Z,78.50
2022-10-28T16:03:46.386Z,79.40
2022-10-28T16:06:50.954Z,80.00
2022-10-28T16:09:52.982Z,80.90
2022-10-28T16:12:54.948Z,81.70
2022-10-28T16:16:01.656Z,82.00
2022-10-28T16:19:16.321Z,82.50
2022-10-28T16:22:19.316Z,82.10
2022-10-28T16:25:22.655Z,82.30
2022-10-28T16:28:28.442Z,82.40
2022-10-28T16:31:31.787Z,82.70
2022-10-28T16:34:33.823Z,82.90
2022-10-28T16:37:38.340Z,82.90
2022-10-28T16:40:51.547Z,83.30
2022-10-28T16:43:54.448Z,84.00
2022-10-28T16:46:56.927Z,84.10
2022-10-28T16:49:59.249Z,84.10
2022-10-28T16:53:01.310Z,84.30
2022-10-28T16:56:03.281Z,84.50
2022-10-28T16:59:05.436Z,84.60
2022-10-28T17:02:15.667Z,84.90
2022-10-28T17:05:22.889Z,85.10
2022-10-28T17:08:48.995Z,85.10
2022-10-28T17:11:47.210Z,85.40
2022-10-28T17:14:50.059Z,85.40
2022-10-28T17:17:52.979Z,85.70
2022-10-28T17:21:02.806Z,85.60
2022-10-28T17:24:05.234Z,86.00
2022-10-28T17:27:07.858Z,86.40
2022-10-28T17:30:13.051Z,86.70
2022-10-28T17:33:15.275Z,86.70
2022-10-28T17:36:17.213Z,86.60
2022-10-28T17:39:24.820Z,86.40
2022-10-28T17:42:28.215Z,86.90
2022-10-28T17:45:30.198Z,86.50
2022-10-28T17:48:32.305Z,86.90
2022-10-28T17:51:34.976Z,86.70
2022-10-28T17:54:36.821Z,86.60
2022-10-28T17:57:38.998Z,86.40
2022-10-28T18:00:40.868Z,86.60
2022-10-28T18:03:42.825Z,87.00
2022-10-28T18:06:44.742Z,87.00
2022-10-28T18:09:46.741Z,87.20
2022-10-28T18:12:50.622Z,87.10
2022-10-28T18:15:52.597Z,87.00
2022-10-28T18:18:55.121Z,86.60
2022-10-28T18:21:57.514Z,86.90
2022-10-28T18:24:59.522Z,87.10
2022-10-28T18:28:04.851Z,87.00
2022-10-28T18:31:10.327Z,86.80
2022-10-28T18:34:12.417Z,86.60
2022-10-28T18:37:14.456Z,87.60
2022-10-28T18:40:16.567Z,87.50
2022-10-28T18:43:18.667Z,88.00
2022-10-28T18:46:21.205Z,87.90
2022-10-28T18:49:24.612Z,87.50
2022-10-28T18:52:26.610Z,88.20
2022-10-28T18:55:28.526Z,88.40
2022-10-28T18:58:30.770Z,88.60
2022-10-28T19:01:33.049Z,88.20
2022-10-28T19:04:35.035Z,88.20
2022-10-28T19:07:36.995Z,88.00
2022-10-28T19:10:39.095Z,88.40
2022-10-28T19:13:42.442Z,88.20
2022-10-28T19:16:44.485Z,87.80
2022-10-28T19:19:46.779Z,87.70
2022-10-28T19:22:48.942Z,87.80
2022-10-28T19:25:55.520Z,87.80
2022-10-28T19:28:57.734Z,87.80
2022-10-28T19:31:59.599Z,88.00
2022-10-28T19:35:01.502Z,88.00
2022-10-28T19:38:03.654Z,88.10
2022-10-28T19:41:09.387Z,88.30
2022-10-28T19:44:11.404Z,88.00
2022-10-28T19:47:13.409Z,88.20
2022-10-28T19:50:15.815Z,88.40
2022-10-28T19:53:17.715Z,88.10
2022-10-28T19:56:20.682Z,88.10
2022-10-28T19:59:22.674Z,88.30
2022-10-28T20:02:24.782Z,88.50
2022-10-28T20:05:28.552Z,88.30
2022-10-28T20:08:30.643Z,88.30
2022-10-28T20:11:36.922Z,88.30
2022-10-28T20:14:38.855Z,88.10
2022-10-28T20:17:41.831Z,88.20
2022-10-28T20:20:43.843Z,88.10
2022-10-28T20:23:47.850Z,88.40
2022-10-28T20:26:49.868Z,88.10
2022-10-28T20:29:51.876Z,88.50
2022-10-28T20:32:55.850Z,88.40
2022-10-28T20:35:58.379Z,89.00
2022-10-28T20:39:02.791Z,88.40
2022-10-28T20:42:04.784Z,88.80
2022-10-28T20:45:07.021Z,89.00
2022-10-28T20:48:08.853Z,88.90
2022-10-28T20:51:11.161Z,89.00
2022-10-28T20:54:13.097Z,88.80
2022-10-28T20:57:14.962Z,89.30
2022-10-28T21:00:17.928Z,89.60
2022-10-28T21:03:21.851Z,89.70
2022-10-28T21:06:25.475Z,89.30
2022-10-28T21:09:27.362Z,89.30
2022-10-28T21:12:29.337Z,89.20
2022-10-28T21:15:35.120Z,89.10
2022-10-28T21:18:38.720Z,89.10
2022-10-28T21:21:40.599Z,89.30
2022-10-28T21:24:42.532Z,89.00
2022-10-28T21:27:44.566Z,88.90
2022-10-28T21:30:47.218Z,88.60
2022-10-28T21:37:11.570Z,89.10
2022-10-28T21:40:13.866Z,88.70
2022-10-28T21:43:15.695Z,88.80
2022-10-28T21:46:19.323Z,88.90
2022-10-28T21:49:21.182Z,88.50
2022-10-28T21:52:23.128Z,88.70
2022-10-28T21:55:41.688Z,88.40
2022-10-28T21:58:48.506Z,88.80
2022-10-28T22:01:50.564Z,88.70
2022-10-28T22:04:52.562Z,88.90
2022-10-28T22:07:55.002Z,88.90
2022-10-28T22:11:06.970Z,89.30
2022-10-28T22:14:10.142Z,89.30
2022-10-28T22:17:12.175Z,89.00
2022-10-28T22:20:15.035Z,89.10
2022-10-28T22:23:17.086Z,88.90
2022-10-28T22:26:24.842Z,89.20
2022-10-28T22:29:28.515Z,89.30
2022-10-28T22:32:30.392Z,88.80
2022-10-28T22:35:32.345Z,89.10
2022-10-28T22:38:34.665Z,88.90
2022-10-28T22:41:36.556Z,88.60
2022-10-28T22:44:38.574Z,88.80
2022-10-28T22:47:40.573Z,89.00
2022-10-28T22:50:42.799Z,88.80
2022-10-28T22:53:45.527Z,89.40
2022-10-28T22:56:47.932Z,89.30
2022-10-28T22:59:50.052Z,88.80
2022-10-28T23:02:52.031Z,89.10
2022-10-28T23:05:54.215Z,88.60
2022-10-28T23:08:56.320Z,88.60
2022-10-28T23:11:58.281Z,88.40
2022-10-28T23:15:00.195Z,88.20
2022-10-28T23:18:04.621Z,88.30
2022-10-28T23:21:24.656Z,87.90
2022-10-28T23:24:26.671Z,88.00
2022-10-28T23:27:28.577Z,88.20
2022-10-28T23:30:30.539Z,88.40
2022-10-28T23:33:34.210Z,88.50
2022-10-28T23:36:36.544Z,88.30
2022-10-28T23:39:38.471Z,88.30
2022-10-28T23:42:40.440Z,88.40
2022-10-28T23:45:44.894Z,88.60
2022-10-28T23:48:46.925Z,88.60
2022-10-28T23:51:48.903Z,88.30
2022-10-28T23:54:51.126Z,88.10
2022-10-28T23:57:56.866Z,88.00
